sensor_id;sensor_type;location;lat;lon;timestamp;temperature;humidity
22364;DHT22;11349;53.412;-1.328;2023-05-07T00:00:04;14.00;99.90
22364;DHT22;11349;53.412;-1.328;2023-05-07T00:02:33;13.90;99.90
22364;DHT22;11349;53.412;-1.328;2023-05-07T00:04:59;13.90;99.90
22364;DHT22;11349;53.412;-1.328;2023-05-07T00:07:25;13.90;99.90
22364;DHT22;11349;53.412;-1.328;2023-05-07T00:09:50;14.00;99.90
22364;DHT22;11349;53.412;-1.328;2023-05-07T00:12:16;14.00;99.90
22364;DHT22;11349;53.412;-1.328;2023-05-07T00:14:42;14.00;99.90
22364;DHT22;11349;53.412;-1.328;2023-05-07T00:17:07;14.00;99.90
22364;DHT22;11349;53.412;-1.328;2023-05-07T00:19:33;14.00;99.90
22364;DHT22;11349;53.412;-1.328;2023-05-07T00:22:01;13.90;99.90
22364;DHT22;11349;53.412;-1.328;2023-05-07T00:24:27;13.80;99.90
22364;DHT22;11349;53.412;-1.328;2023-05-07T00:26:53;13.80;99.90
22364;DHT22;11349;53.412;-1.328;2023-05-07T00:29:19;13.80;99.90
22364;DHT22;11349;53.412;-1.328;2023-05-07T00:31:44;13.70;99.90
22364;DHT22;11349;53.412;-1.328;2023-05-07T00:34:10;13.80;99.90
22364;DHT22;11349;53.412;-1.328;2023-05-07T00:36:36;13.70;99.90
22364;DHT22;11349;53.412;-1.328;2023-05-07T00:39:01;13.70;99.90
22364;DHT22;11349;53.412;-1.328;2023-05-07T00:41:29;13.70;99.90
22364;DHT22;11349;53.412;-1.328;2023-05-07T00:43:58;13.80;99.90
22364;DHT22;11349;53.412;-1.328;2023-05-07T00:46:25;13.70;99.90
22364;DHT22;11349;53.412;-1.328;2023-05-07T00:48:51;13.70;99.90
22364;DHT22;11349;53.412;-1.328;2023-05-07T00:51:18;13.70;99.90
22364;DHT22;11349;53.412;-1.328;2023-05-07T00:53:44;13.60;99.90
22364;DHT22;11349;53.412;-1.328;2023-05-07T00:56:10;13.60;99.90
22364;DHT22;11349;53.412;-1.328;2023-05-07T00:58:37;13.60;99.90
22364;DHT22;11349;53.412;-1.328;2023-05-07T01:01:06;13.60;99.90
22364;DHT22;11349;53.412;-1.328;2023-05-07T01:03:32;13.60;99.90
22364;DHT22;11349;53.412;-1.328;2023-05-07T01:06:02;13.60;99.90
22364;DHT22;11349;53.412;-1.328;2023-05-07T01:08:29;13.60;99.90
22364;DHT22;11349;53.412;-1.328;2023-05-07T01:10:56;13.50;99.90
22364;DHT22;11349;53.412;-1.328;2023-05-07T01:13:22;13.60;99.90
22364;DHT22;11349;53.412;-1.328;2023-05-07T01:15:50;13.60;99.90
22364;DHT22;11349;53.412;-1.328;2023-05-07T01:18:15;13.60;99.90
22364;DHT22;11349;53.412;-1.328;2023-05-07T01:20:42;13.50;99.90
22364;DHT22;11349;53.412;-1.328;2023-05-07T01:23:08;13.50;99.90
22364;DHT22;11349;53.412;-1.328;2023-05-07T01:25:34;13.50;99.90
22364;DHT22;11349;53.412;-1.328;2023-05-07T01:28:00;13.50;99.90
22364;DHT22;11349;53.412;-1.328;2023-05-07T01:30:27;13.50;99.90
22364;DHT22;11349;53.412;-1.328;2023-05-07T01:33:04;13.50;99.90
22364;DHT22;11349;53.412;-1.328;2023-05-07T01:35:36;13.50;99.90
22364;DHT22;11349;53.412;-1.328;2023-05-07T01:38:03;13.60;99.90
22364;DHT22;11349;53.412;-1.328;2023-05-07T01:40:32;13.60;99.90
22364;DHT22;11349;53.412;-1.328;2023-05-07T01:43:00;13.60;99.90
22364;DHT22;11349;53.412;-1.328;2023-05-07T01:45:26;13.60;99.90
22364;DHT22;11349;53.412;-1.328;2023-05-07T01:47:53;13.60;99.90
22364;DHT22;11349;53.412;-1.328;2023-05-07T01:50:19;13.60;99.90
22364;DHT22;11349;53.412;-1.328;2023-05-07T01:52:46;13.60;99.90
22364;DHT22;11349;53.412;-1.328;2023-05-07T01:55:12;13.60;99.90
22364;DHT22;11349;53.412;-1.328;2023-05-07T01:57:38;13.60;99.90
22364;DHT22;11349;53.412;-1.328;2023-05-07T02:00:04;13.60;99.90
22364;DHT22;11349;53.412;-1.328;2023-05-07T02:02:30;13.60;99.90
22364;DHT22;11349;53.412;-1.328;2023-05-07T02:04:56;13.60;99.90
22364;DHT22;11349;53.412;-1.328;2023-05-07T02:07:22;13.60;99.90
22364;DHT22;11349;53.412;-1.328;2023-05-07T02:09:48;13.60;99.90
22364;DHT22;11349;53.412;-1.328;2023-05-07T02:12:13;13.50;99.90
22364;DHT22;11349;53.412;-1.328;2023-05-07T02:14:41;13.50;99.90
22364;DHT22;11349;53.412;-1.328;2023-05-07T02:17:07;13.60;99.90
22364;DHT22;11349;53.412;-1.328;2023-05-07T02:19:34;13.60;99.90
22364;DHT22;11349;53.412;-1.328;2023-05-07T02:21:59;13.50;99.90
22364;DHT22;11349;53.412;-1.328;2023-05-07T02:24:25;13.50;99.90
22364;DHT22;11349;53.412;-1.328;2023-05-07T02:26:51;13.50;99.90
22364;DHT22;11349;53.412;-1.328;2023-05-07T02:29:16;13.50;99.90
22364;DHT22;11349;53.412;-1.328;2023-05-07T02:31:42;13.50;99.90
22364;DHT22;11349;53.412;-1.328;2023-05-07T02:34:08;13.50;99.90
22364;DHT22;11349;53.412;-1.328;2023-05-07T02:36:33;13.50;99.90
22364;DHT22;11349;53.412;-1.328;2023-05-07T02:39:00;13.50;99.90
22364;DHT22;11349;53.412;-1.328;2023-05-07T02:41:26;13.50;99.90
22364;DHT22;11349;53.412;-1.328;2023-05-07T02:43:53;13.50;99.90
22364;DHT22;11349;53.412;-1.328;2023-05-07T02:46:19;13.50;99.90
22364;DHT22;11349;53.412;-1.328;2023-05-07T02:48:45;13.50;99.90
22364;DHT22;11349;53.412;-1.328;2023-05-07T02:51:10;13.50;99.90
22364;DHT22;11349;53.412;-1.328;2023-05-07T02:53:36;13.50;99.90
22364;DHT22;11349;53.412;-1.328;2023-05-07T02:56:02;13.50;99.90
22364;DHT22;11349;53.412;-1.328;2023-05-07T02:58:28;13.50;99.90
22364;DHT22;11349;53.412;-1.328;2023-05-07T03:00:54;13.50;99.90
22364;DHT22;11349;53.412;-1.328;2023-05-07T03:03:23;13.50;99.90
22364;DHT22;11349;53.412;-1.328;2023-05-07T03:05:51;13.50;99.90
22364;DHT22;11349;53.412;-1.328;2023-05-07T03:08:17;13.50;99.90
22364;DHT22;11349;53.412;-1.328;2023-05-07T03:10:42;13.50;99.90
22364;DHT22;11349;53.412;-1.328;2023-05-07T03:13:08;13.50;99.90
22364;DHT22;11349;53.412;-1.328;2023-05-07T03:15:34;13.50;99.90
22364;DHT22;11349;53.412;-1.328;2023-05-07T03:17:59;13.50;99.90
22364;DHT22;11349;53.412;-1.328;2023-05-07T03:20:25;13.50;99.90
22364;DHT22;11349;53.412;-1.328;2023-05-07T03:22:51;13.50;99.90
22364;DHT22;11349;53.412;-1.328;2023-05-07T03:25:17;13.50;99.90
22364;DHT22;11349;53.412;-1.328;2023-05-07T03:27:42;13.50;99.90
22364;DHT22;11349;53.412;-1.328;2023-05-07T03:30:09;13.50;99.90
22364;DHT22;11349;53.412;-1.328;2023-05-07T03:32:35;13.50;99.90
22364;DHT22;11349;53.412;-1.328;2023-05-07T03:35:01;13.50;99.90
22364;DHT22;11349;53.412;-1.328;2023-05-07T03:37:27;13.50;99.90
22364;DHT22;11349;53.412;-1.328;2023-05-07T03:39:53;13.50;99.90
22364;DHT22;11349;53.412;-1.328;2023-05-07T03:42:19;13.50;99.90
22364;DHT22;11349;53.412;-1.328;2023-05-07T03:44:45;13.50;99.90
22364;DHT22;11349;53.412;-1.328;2023-05-07T03:47:10;13.50;99.90
22364;DHT22;11349;53.412;-1.328;2023-05-07T03:49:36;13.50;99.90
22364;DHT22;11349;53.412;-1.328;2023-05-07T03:52:02;13.60;99.90
22364;DHT22;11349;53.412;-1.328;2023-05-07T03:54:28;13.60;99.90
22364;DHT22;11349;53.412;-1.328;2023-05-07T03:56:54;13.60;99.90
22364;DHT22;11349;53.412;-1.328;2023-05-07T03:59:22;13.60;99.90
22364;DHT22;11349;53.412;-1.328;2023-05-07T04:01:48;13.70;99.90
22364;DHT22;11349;53.412;-1.328;2023-05-07T04:04:16;13.70;99.90
22364;DHT22;11349;53.412;-1.328;2023-05-07T04:06:42;13.70;99.90
22364;DHT22;11349;53.412;-1.328;2023-05-07T04:09:08;13.70;99.90
22364;DHT22;11349;53.412;-1.328;2023-05-07T04:11:35;13.70;99.90
22364;DHT22;11349;53.412;-1.328;2023-05-07T04:14:01;13.70;99.90
22364;DHT22;11349;53.412;-1.328;2023-05-07T04:16:27;13.70;99.90
22364;DHT22;11349;53.412;-1.328;2023-05-07T04:18:52;13.70;99.90
22364;DHT22;11349;53.412;-1.328;2023-05-07T04:21:19;13.70;99.90
22364;DHT22;11349;53.412;-1.328;2023-05-07T04:23:46;13.70;99.90
22364;DHT22;11349;53.412;-1.328;2023-05-07T04:26:12;13.80;99.90
22364;DHT22;11349;53.412;-1.328;2023-05-07T04:28:38;13.70;99.90
22364;DHT22;11349;53.412;-1.328;2023-05-07T04:31:04;13.80;99.90
22364;DHT22;11349;53.412;-1.328;2023-05-07T04:33:31;13.70;99.90
22364;DHT22;11349;53.412;-1.328;2023-05-07T04:35:57;13.70;99.90
22364;DHT22;11349;53.412;-1.328;2023-05-07T04:38:23;13.70;99.90
22364;DHT22;11349;53.412;-1.328;2023-05-07T04:40:49;13.70;99.90
22364;DHT22;11349;53.412;-1.328;2023-05-07T04:43:15;13.70;99.90
22364;DHT22;11349;53.412;-1.328;2023-05-07T04:45:41;13.80;99.90
22364;DHT22;11349;53.412;-1.328;2023-05-07T04:48:10;13.60;99.90
22364;DHT22;11349;53.412;-1.328;2023-05-07T04:50:36;13.70;99.90
22364;DHT22;11349;53.412;-1.328;2023-05-07T04:53:02;13.70;99.90
22364;DHT22;11349;53.412;-1.328;2023-05-07T04:55:28;13.70;99.90
22364;DHT22;11349;53.412;-1.328;2023-05-07T04:57:54;13.70;99.90
22364;DHT22;11349;53.412;-1.328;2023-05-07T05:00:19;13.70;99.90
22364;DHT22;11349;53.412;-1.328;2023-05-07T05:02:46;13.70;99.90
22364;DHT22;11349;53.412;-1.328;2023-05-07T05:05:11;13.70;99.90
22364;DHT22;11349;53.412;-1.328;2023-05-07T05:07:37;13.60;99.90
22364;DHT22;11349;53.412;-1.328;2023-05-07T05:10:04;13.60;99.90
22364;DHT22;11349;53.412;-1.328;2023-05-07T05:12:31;13.60;99.90
22364;DHT22;11349;53.412;-1.328;2023-05-07T05:14:56;13.60;99.90
22364;DHT22;11349;53.412;-1.328;2023-05-07T05:17:22;13.60;99.90
22364;DHT22;11349;53.412;-1.328;2023-05-07T05:19:48;13.60;99.90
22364;DHT22;11349;53.412;-1.328;2023-05-07T05:22:16;13.60;99.90
22364;DHT22;11349;53.412;-1.328;2023-05-07T05:24:45;13.60;99.90
22364;DHT22;11349;53.412;-1.328;2023-05-07T05:27:11;13.70;99.90
22364;DHT22;11349;53.412;-1.328;2023-05-07T05:29:36;13.60;99.90
22364;DHT22;11349;53.412;-1.328;2023-05-07T05:32:02;13.70;99.90
22364;DHT22;11349;53.412;-1.328;2023-05-07T05:34:28;13.70;99.90
22364;DHT22;11349;53.412;-1.328;2023-05-07T05:36:53;13.80;99.90
22364;DHT22;11349;53.412;-1.328;2023-05-07T05:39:19;13.80;99.90
22364;DHT22;11349;53.412;-1.328;2023-05-07T05:41:45;13.80;99.90
22364;DHT22;11349;53.412;-1.328;2023-05-07T05:44:10;13.80;99.90
22364;DHT22;11349;53.412;-1.328;2023-05-07T05:46:36;13.90;99.90
22364;DHT22;11349;53.412;-1.328;2023-05-07T05:49:02;13.90;99.90
22364;DHT22;11349;53.412;-1.328;2023-05-07T05:51:27;14.00;99.90
22364;DHT22;11349;53.412;-1.328;2023-05-07T05:53:53;14.10;99.90
22364;DHT22;11349;53.412;-1.328;2023-05-07T05:56:19;14.10;99.90
22364;DHT22;11349;53.412;-1.328;2023-05-07T05:58:46;14.10;99.90
22364;DHT22;11349;53.412;-1.328;2023-05-07T06:01:12;14.10;99.90
22364;DHT22;11349;53.412;-1.328;2023-05-07T06:03:38;14.20;99.90
22364;DHT22;11349;53.412;-1.328;2023-05-07T06:06:03;14.30;99.90
22364;DHT22;11349;53.412;-1.328;2023-05-07T06:08:29;14.40;99.90
22364;DHT22;11349;53.412;-1.328;2023-05-07T06:10:55;14.40;99.90
22364;DHT22;11349;53.412;-1.328;2023-05-07T06:13:22;14.50;99.90
22364;DHT22;11349;53.412;-1.328;2023-05-07T06:15:49;14.50;99.90
22364;DHT22;11349;53.412;-1.328;2023-05-07T06:18:14;14.60;99.90
22364;DHT22;11349;53.412;-1.328;2023-05-07T06:20:40;14.60;99.90
22364;DHT22;11349;53.412;-1.328;2023-05-07T06:23:06;14.80;99.90
22364;DHT22;11349;53.412;-1.328;2023-05-07T06:25:31;14.90;99.90
22364;DHT22;11349;53.412;-1.328;2023-05-07T06:27:57;14.90;99.90
22364;DHT22;11349;53.412;-1.328;2023-05-07T06:30:23;15.00;99.90
22364;DHT22;11349;53.412;-1.328;2023-05-07T06:32:49;15.00;99.90
22364;DHT22;11349;53.412;-1.328;2023-05-07T06:35:14;15.10;99.90
22364;DHT22;11349;53.412;-1.328;2023-05-07T06:37:41;15.20;99.90
22364;DHT22;11349;53.412;-1.328;2023-05-07T06:40:08;15.30;99.90
22364;DHT22;11349;53.412;-1.328;2023-05-07T06:42:35;15.30;99.90
22364;DHT22;11349;53.412;-1.328;2023-05-07T06:45:01;15.30;99.90
22364;DHT22;11349;53.412;-1.328;2023-05-07T06:47:28;15.30;99.90
22364;DHT22;11349;53.412;-1.328;2023-05-07T06:49:53;15.30;99.90
22364;DHT22;11349;53.412;-1.328;2023-05-07T06:52:19;15.40;99.90
22364;DHT22;11349;53.412;-1.328;2023-05-07T06:54:45;15.40;99.90
22364;DHT22;11349;53.412;-1.328;2023-05-07T06:57:13;15.40;99.90
22364;DHT22;11349;53.412;-1.328;2023-05-07T06:59:39;15.50;99.90
22364;DHT22;11349;53.412;-1.328;2023-05-07T07:02:05;15.50;99.90
22364;DHT22;11349;53.412;-1.328;2023-05-07T07:04:31;15.50;99.90
22364;DHT22;11349;53.412;-1.328;2023-05-07T07:06:56;15.50;99.90
22364;DHT22;11349;53.412;-1.328;2023-05-07T07:09:23;15.60;99.90
22364;DHT22;11349;53.412;-1.328;2023-05-07T07:11:48;15.70;99.90
22364;DHT22;11349;53.412;-1.328;2023-05-07T07:14:14;15.70;99.90
22364;DHT22;11349;53.412;-1.328;2023-05-07T07:16:40;15.90;99.90
22364;DHT22;11349;53.412;-1.328;2023-05-07T07:19:06;15.90;99.90
22364;DHT22;11349;53.412;-1.328;2023-05-07T07:21:32;16.00;99.90
22364;DHT22;11349;53.412;-1.328;2023-05-07T07:23:57;16.00;99.90
22364;DHT22;11349;53.412;-1.328;2023-05-07T07:26:23;16.00;99.90
22364;DHT22;11349;53.412;-1.328;2023-05-07T07:28:49;16.10;99.90
22364;DHT22;11349;53.412;-1.328;2023-05-07T07:31:14;16.00;99.90
22364;DHT22;11349;53.412;-1.328;2023-05-07T07:33:40;16.10;99.90
22364;DHT22;11349;53.412;-1.328;2023-05-07T07:36:06;16.10;99.90
22364;DHT22;11349;53.412;-1.328;2023-05-07T07:38:33;16.00;99.90
22364;DHT22;11349;53.412;-1.328;2023-05-07T07:40:59;16.10;99.90
22364;DHT22;11349;53.412;-1.328;2023-05-07T07:43:25;16.10;99.90
22364;DHT22;11349;53.412;-1.328;2023-05-07T07:45:51;16.30;99.90
22364;DHT22;11349;53.412;-1.328;2023-05-07T07:48:16;16.20;99.90
22364;DHT22;11349;53.412;-1.328;2023-05-07T07:50:42;16.30;99.90
22364;DHT22;11349;53.412;-1.328;2023-05-07T07:53:08;16.40;99.90
22364;DHT22;11349;53.412;-1.328;2023-05-07T07:55:38;16.40;99.90
22364;DHT22;11349;53.412;-1.328;2023-05-07T07:58:04;16.50;99.90
22364;DHT22;11349;53.412;-1.328;2023-05-07T08:00:30;16.60;99.90
22364;DHT22;11349;53.412;-1.328;2023-05-07T08:02:56;16.70;99.90
22364;DHT22;11349;53.412;-1.328;2023-05-07T08:05:23;16.80;99.90
22364;DHT22;11349;53.412;-1.328;2023-05-07T08:07:49;16.70;99.90
22364;DHT22;11349;53.412;-1.328;2023-05-07T08:10:18;16.80;99.90
22364;DHT22;11349;53.412;-1.328;2023-05-07T08:12:48;16.90;99.90
22364;DHT22;11349;53.412;-1.328;2023-05-07T08:15:15;17.10;99.90
22364;DHT22;11349;53.412;-1.328;2023-05-07T08:17:41;17.20;99.90
22364;DHT22;11349;53.412;-1.328;2023-05-07T08:20:07;17.20;99.90
22364;DHT22;11349;53.412;-1.328;2023-05-07T08:22:34;17.40;99.90
22364;DHT22;11349;53.412;-1.328;2023-05-07T08:25:00;17.60;99.90
22364;DHT22;11349;53.412;-1.328;2023-05-07T08:27:26;17.60;99.90
22364;DHT22;11349;53.412;-1.328;2023-05-07T08:29:52;17.70;99.90
22364;DHT22;11349;53.412;-1.328;2023-05-07T08:32:18;17.70;99.90
22364;DHT22;11349;53.412;-1.328;2023-05-07T08:34:44;17.70;99.90
22364;DHT22;11349;53.412;-1.328;2023-05-07T08:37:09;17.70;99.90
22364;DHT22;11349;53.412;-1.328;2023-05-07T08:39:35;17.60;99.90
22364;DHT22;11349;53.412;-1.328;2023-05-07T08:42:01;17.70;99.90
22364;DHT22;11349;53.412;-1.328;2023-05-07T08:44:34;18.10;99.90
22364;DHT22;11349;53.412;-1.328;2023-05-07T08:47:02;18.70;99.90
22364;DHT22;11349;53.412;-1.328;2023-05-07T08:49:31;19.10;99.90
22364;DHT22;11349;53.412;-1.328;2023-05-07T08:51:58;19.10;99.90
22364;DHT22;11349;53.412;-1.328;2023-05-07T08:54:25;19.20;10.40
22364;DHT22;11349;53.412;-1.328;2023-05-07T08:56:51;19.30;99.90
22364;DHT22;11349;53.412;-1.328;2023-05-07T08:59:17;19.60;1.00
22364;DHT22;11349;53.412;-1.328;2023-05-07T09:01:43;19.90;99.90
22364;DHT22;11349;53.412;-1.328;2023-05-07T09:04:08;20.00;99.90
22364;DHT22;11349;53.412;-1.328;2023-05-07T09:06:34;19.80;51.00
22364;DHT22;11349;53.412;-1.328;2023-05-07T09:09:00;19.70;99.90
22364;DHT22;11349;53.412;-1.328;2023-05-07T09:11:27;19.60;1.00
22364;DHT22;11349;53.412;-1.328;2023-05-07T09:13:57;19.50;1.00
22364;DHT22;11349;53.412;-1.328;2023-05-07T09:16:25;19.70;5.70
22364;DHT22;11349;53.412;-1.328;2023-05-07T09:18:52;19.50;99.90
22364;DHT22;11349;53.412;-1.328;2023-05-07T09:21:19;19.60;1.00
22364;DHT22;11349;53.412;-1.328;2023-05-07T09:23:52;19.70;23.60
22364;DHT22;11349;53.412;-1.328;2023-05-07T09:26:20;19.90;30.10
22364;DHT22;11349;53.412;-1.328;2023-05-07T09:28:46;19.90;99.90
22364;DHT22;11349;53.412;-1.328;2023-05-07T09:31:12;20.10;1.00
22364;DHT22;11349;53.412;-1.328;2023-05-07T09:33:38;19.90;99.90
22364;DHT22;11349;53.412;-1.328;2023-05-07T09:36:08;19.80;18.70
22364;DHT22;11349;53.412;-1.328;2023-05-07T09:38:34;20.00;99.90
22364;DHT22;11349;53.412;-1.328;2023-05-07T09:41:04;20.20;1.00
22364;DHT22;11349;53.412;-1.328;2023-05-07T09:43:36;20.30;1.00
22364;DHT22;11349;53.412;-1.328;2023-05-07T09:46:13;20.30;58.10
22364;DHT22;11349;53.412;-1.328;2023-05-07T09:48:41;20.30;1.00
22364;DHT22;11349;53.412;-1.328;2023-05-07T09:51:30;20.30;69.60
22364;DHT22;11349;53.412;-1.328;2023-05-07T09:54:00;20.40;99.90
22364;DHT22;11349;53.412;-1.328;2023-05-07T09:56:29;20.30;55.20
22364;DHT22;11349;53.412;-1.328;2023-05-07T09:58:59;20.40;94.00
22364;DHT22;11349;53.412;-1.328;2023-05-07T10:01:25;20.30;99.90
22364;DHT22;11349;53.412;-1.328;2023-05-07T10:03:52;20.30;99.90
22364;DHT22;11349;53.412;-1.328;2023-05-07T10:06:20;20.30;99.90
22364;DHT22;11349;53.412;-1.328;2023-05-07T10:08:49;20.50;1.00
22364;DHT22;11349;53.412;-1.328;2023-05-07T10:11:16;20.30;1.00
22364;DHT22;11349;53.412;-1.328;2023-05-07T10:13:43;20.40;99.90
22364;DHT22;11349;53.412;-1.328;2023-05-07T10:16:09;20.40;99.90
22364;DHT22;11349;53.412;-1.328;2023-05-07T10:18:35;20.20;99.90
22364;DHT22;11349;53.412;-1.328;2023-05-07T10:21:19;20.20;99.90
22364;DHT22;11349;53.412;-1.328;2023-05-07T10:23:51;20.30;1.00
22364;DHT22;11349;53.412;-1.328;2023-05-07T10:26:20;20.30;1.00
22364;DHT22;11349;53.412;-1.328;2023-05-07T10:28:51;20.20;1.00
22364;DHT22;11349;53.412;-1.328;2023-05-07T10:34:26;20.50;1.00
22364;DHT22;11349;53.412;-1.328;2023-05-07T10:36:54;20.50;99.90
22364;DHT22;11349;53.412;-1.328;2023-05-07T10:39:21;20.50;1.00
22364;DHT22;11349;53.412;-1.328;2023-05-07T10:41:48;20.00;1.00
22364;DHT22;11349;53.412;-1.328;2023-05-07T10:44:29;20.30;99.90
22364;DHT22;11349;53.412;-1.328;2023-05-07T10:47:11;20.40;1.00
22364;DHT22;11349;53.412;-1.328;2023-05-07T10:52:16;20.30;76.70
22364;DHT22;11349;53.412;-1.328;2023-05-07T10:54:43;20.30;99.90
22364;DHT22;11349;53.412;-1.328;2023-05-07T10:59:57;20.00;1.00
22364;DHT22;11349;53.412;-1.328;2023-05-07T11:02:23;19.90;99.90
22364;DHT22;11349;53.412;-1.328;2023-05-07T11:05:22;20.00;99.90
22364;DHT22;11349;53.412;-1.328;2023-05-07T11:07:55;19.50;99.90
22364;DHT22;11349;53.412;-1.328;2023-05-07T11:10:21;19.90;1.00
22364;DHT22;11349;53.412;-1.328;2023-05-07T11:12:51;20.10;1.00
22364;DHT22;11349;53.412;-1.328;2023-05-07T11:15:46;20.20;99.90
22364;DHT22;11349;53.412;-1.328;2023-05-07T11:18:16;20.50;99.90
22364;DHT22;11349;53.412;-1.328;2023-05-07T11:20:49;20.70;99.90
22364;DHT22;11349;53.412;-1.328;2023-05-07T11:26:04;20.40;99.90
22364;DHT22;11349;53.412;-1.328;2023-05-07T11:28:33;20.50;99.90
22364;DHT22;11349;53.412;-1.328;2023-05-07T11:31:02;20.70;16.20
22364;DHT22;11349;53.412;-1.328;2023-05-07T11:33:29;20.60;1.00
22364;DHT22;11349;53.412;-1.328;2023-05-07T11:35:56;20.80;31.60
22364;DHT22;11349;53.412;-1.328;2023-05-07T11:38:21;20.80;1.00
22364;DHT22;11349;53.412;-1.328;2023-05-07T11:40:58;20.80;1.00
22364;DHT22;11349;53.412;-1.328;2023-05-07T11:43:26;20.70;1.00
22364;DHT22;11349;53.412;-1.328;2023-05-07T11:45:52;20.90;1.00
22364;DHT22;11349;53.412;-1.328;2023-05-07T11:48:18;20.90;1.00
22364;DHT22;11349;53.412;-1.328;2023-05-07T11:51:12;20.70;1.00
22364;DHT22;11349;53.412;-1.328;2023-05-07T11:53:40;20.60;1.00
22364;DHT22;11349;53.412;-1.328;2023-05-07T11:56:10;20.70;99.90
22364;DHT22;11349;53.412;-1.328;2023-05-07T11:58:37;20.70;99.90
22364;DHT22;11349;53.412;-1.328;2023-05-07T12:01:03;20.90;99.90
22364;DHT22;11349;53.412;-1.328;2023-05-07T12:03:29;20.80;1.00
22364;DHT22;11349;53.412;-1.328;2023-05-07T12:05:55;21.00;99.90
22364;DHT22;11349;53.412;-1.328;2023-05-07T12:08:21;20.90;1.00
22364;DHT22;11349;53.412;-1.328;2023-05-07T12:10:49;21.20;99.90
22364;DHT22;11349;53.412;-1.328;2023-05-07T12:13:23;21.20;99.90
22364;DHT22;11349;53.412;-1.328;2023-05-07T12:15:54;21.20;90.20
22364;DHT22;11349;53.412;-1.328;2023-05-07T12:18:21;21.20;99.90
22364;DHT22;11349;53.412;-1.328;2023-05-07T12:20:47;21.30;25.20
22364;DHT22;11349;53.412;-1.328;2023-05-07T12:23:14;21.40;99.90
22364;DHT22;11349;53.412;-1.328;2023-05-07T12:25:41;21.30;99.90
22364;DHT22;11349;53.412;-1.328;2023-05-07T12:28:15;21.30;1.00
22364;DHT22;11349;53.412;-1.328;2023-05-07T12:30:46;21.40;1.00
22364;DHT22;11349;53.412;-1.328;2023-05-07T12:33:12;21.50;1.00
22364;DHT22;11349;53.412;-1.328;2023-05-07T12:35:42;21.40;99.90
22364;DHT22;11349;53.412;-1.328;2023-05-07T12:38:14;21.30;1.00
22364;DHT22;11349;53.412;-1.328;2023-05-07T12:40:42;21.20;99.90
22364;DHT22;11349;53.412;-1.328;2023-05-07T12:43:14;21.20;99.90
22364;DHT22;11349;53.412;-1.328;2023-05-07T12:45:42;21.20;99.90
22364;DHT22;11349;53.412;-1.328;2023-05-07T12:48:10;21.20;1.60
22364;DHT22;11349;53.412;-1.328;2023-05-07T12:50:36;21.10;99.90
22364;DHT22;11349;53.412;-1.328;2023-05-07T12:53:07;21.30;99.90
22364;DHT22;11349;53.412;-1.328;2023-05-07T12:55:41;21.40;64.90
22364;DHT22;11349;53.412;-1.328;2023-05-07T12:58:08;21.50;1.00
22364;DHT22;11349;53.412;-1.328;2023-05-07T13:00:37;21.40;1.00
22364;DHT22;11349;53.412;-1.328;2023-05-07T13:03:04;21.60;99.90
22364;DHT22;11349;53.412;-1.328;2023-05-07T13:05:31;21.70;1.00
22364;DHT22;11349;53.412;-1.328;2023-05-07T13:07:57;21.70;1.00
22364;DHT22;11349;53.412;-1.328;2023-05-07T13:10:23;21.80;99.90
22364;DHT22;11349;53.412;-1.328;2023-05-07T13:12:50;21.90;1.00
22364;DHT22;11349;53.412;-1.328;2023-05-07T13:15:16;21.80;99.90
22364;DHT22;11349;53.412;-1.328;2023-05-07T13:17:42;21.90;1.00
22364;DHT22;11349;53.412;-1.328;2023-05-07T13:20:09;21.90;1.00
22364;DHT22;11349;53.412;-1.328;2023-05-07T13:22:39;21.80;99.90
22364;DHT22;11349;53.412;-1.328;2023-05-07T13:25:05;21.90;99.90
22364;DHT22;11349;53.412;-1.328;2023-05-07T13:27:31;22.00;1.00
22364;DHT22;11349;53.412;-1.328;2023-05-07T13:29:57;21.90;99.90
22364;DHT22;11349;53.412;-1.328;2023-05-07T13:32:23;21.90;7.10
22364;DHT22;11349;53.412;-1.328;2023-05-07T13:34:49;21.80;1.00
22364;DHT22;11349;53.412;-1.328;2023-05-07T13:37:14;22.00;99.90
22364;DHT22;11349;53.412;-1.328;2023-05-07T13:39:40;22.00;99.90
22364;DHT22;11349;53.412;-1.328;2023-05-07T13:42:10;22.10;10.20
22364;DHT22;11349;53.412;-1.328;2023-05-07T13:44:35;22.20;1.00
22364;DHT22;11349;53.412;-1.328;2023-05-07T13:47:01;22.10;1.00
22364;DHT22;11349;53.412;-1.328;2023-05-07T13:49:27;22.20;1.00
22364;DHT22;11349;53.412;-1.328;2023-05-07T13:51:53;22.00;1.00
22364;DHT22;11349;53.412;-1.328;2023-05-07T13:54:18;22.10;99.90
22364;DHT22;11349;53.412;-1.328;2023-05-07T13:56:44;22.30;1.00
22364;DHT22;11349;53.412;-1.328;2023-05-07T13:59:10;22.30;1.00
22364;DHT22;11349;53.412;-1.328;2023-05-07T14:01:35;22.20;1.00
22364;DHT22;11349;53.412;-1.328;2023-05-07T14:04:01;22.40;61.80
22364;DHT22;11349;53.412;-1.328;2023-05-07T14:06:27;22.40;1.00
22364;DHT22;11349;53.412;-1.328;2023-05-07T14:08:52;22.30;28.10
22364;DHT22;11349;53.412;-1.328;2023-05-07T14:11:18;22.40;1.00
22364;DHT22;11349;53.412;-1.328;2023-05-07T14:13:44;22.40;99.90
22364;DHT22;11349;53.412;-1.328;2023-05-07T14:16:09;22.30;99.90
22364;DHT22;11349;53.412;-1.328;2023-05-07T14:18:35;22.40;1.00
22364;DHT22;11349;53.412;-1.328;2023-05-07T14:21:02;22.20;1.00
22364;DHT22;11349;53.412;-1.328;2023-05-07T14:23:28;22.30;1.00
22364;DHT22;11349;53.412;-1.328;2023-05-07T14:25:54;22.40;99.90
22364;DHT22;11349;53.412;-1.328;2023-05-07T14:28:23;22.30;99.90
22364;DHT22;11349;53.412;-1.328;2023-05-07T14:30:48;22.30;99.90
22364;DHT22;11349;53.412;-1.328;2023-05-07T14:33:14;22.40;1.00
22364;DHT22;11349;53.412;-1.328;2023-05-07T14:35:40;22.40;1.00
22364;DHT22;11349;53.412;-1.328;2023-05-07T14:38:05;22.20;99.90
22364;DHT22;11349;53.412;-1.328;2023-05-07T14:40:31;22.20;55.00
22364;DHT22;11349;53.412;-1.328;2023-05-07T14:42:57;22.10;3.70
22364;DHT22;11349;53.412;-1.328;2023-05-07T14:45:23;22.10;1.00
22364;DHT22;11349;53.412;-1.328;2023-05-07T14:47:49;22.10;99.90
22364;DHT22;11349;53.412;-1.328;2023-05-07T14:50:14;22.10;1.00
22364;DHT22;11349;53.412;-1.328;2023-05-07T14:52:40;22.10;99.90
22364;DHT22;11349;53.412;-1.328;2023-05-07T14:55:06;22.10;99.90
22364;DHT22;11349;53.412;-1.328;2023-05-07T14:57:32;22.30;1.00
22364;DHT22;11349;53.412;-1.328;2023-05-07T15:00:01;22.30;99.90
22364;DHT22;11349;53.412;-1.328;2023-05-07T15:02:27;22.40;13.60
22364;DHT22;11349;53.412;-1.328;2023-05-07T15:04:52;22.30;99.90
22364;DHT22;11349;53.412;-1.328;2023-05-07T15:07:18;22.40;99.90
22364;DHT22;11349;53.412;-1.328;2023-05-07T15:09:46;22.40;99.90
22364;DHT22;11349;53.412;-1.328;2023-05-07T15:12:13;22.40;1.00
22364;DHT22;11349;53.412;-1.328;2023-05-07T15:14:39;22.40;1.00
22364;DHT22;11349;53.412;-1.328;2023-05-07T15:17:05;22.40;66.80
22364;DHT22;11349;53.412;-1.328;2023-05-07T15:19:30;22.30;1.00
22364;DHT22;11349;53.412;-1.328;2023-05-07T15:22:00;22.40;1.00
22364;DHT22;11349;53.412;-1.328;2023-05-07T15:24:29;22.30;1.00
22364;DHT22;11349;53.412;-1.328;2023-05-07T15:26:55;22.50;23.80